Time;durP1;ratioP1;P1;durP2;ratioP2;P2;SDS_P1;SDS_P2;PMS_P1;PMS_P2;Temp;Humidity;BMP_temperature;BMP_pressure;BME280_temperature;BME280_humidity;BME280_pressure;Samples;Min_cycle;Max_cycle;Signal;HPM_P1;HPM_P2
2023/12/31 00:02:00;;;;;;;32.40;12.10;;;5.40;19.00;;;;;;5020834;28;20480;-68
2023/12/31 00:04:27;;;;;;;17.87;9.70;;;5.30;19.20;;;;;;5023495;28;20487;-68
2023/12/31 00:06:53;;;;;;;53.90;20.63;;;5.40;19.30;;;;;;5019122;28;20456;-68
2023/12/31 00:09:21;;;;;;;25.67;11.53;;;5.40;19.20;;;;;;5025404;28;20815;-68
2023/12/31 00:11:48;;;;;;;12.93;8.40;;;5.30;19.40;;;;;;5024658;28;20467;-68
2023/12/31 00:14:15;;;;;;;12.17;7.60;;;5.20;19.50;;;;;;5022509;28;21023;-68
2023/12/31 00:16:41;;;;;;;13.63;8.23;;;5.20;19.60;;;;;;5021148;28;20470;-68
2023/12/31 00:19:08;;;;;;;62.07;20.10;;;5.20;19.70;;;;;;5020700;28;20458;-68
2023/12/31 00:21:35;;;;;;;32.53;17.87;;;5.20;19.70;;;;;;5021735;28;20467;-68
2023/12/31 00:24:02;;;;;;;27.10;14.97;;;5.20;19.70;;;;;;5024017;28;20475;-68
2023/12/31 00:26:30;;;;;;;31.97;16.40;;;5.20;19.60;;;;;;5021392;28;20931;-68
2023/12/31 00:28:57;;;;;;;19.10;10.53;;;5.20;19.70;;;;;;5023815;28;20455;-67
2023/12/31 00:31:23;;;;;;;15.60;8.87;;;5.10;19.90;;;;;;5024039;28;20484;-67
2023/12/31 00:33:56;;;;;;;10.30;7.03;;;5.10;19.90;;;;;;5022677;28;20483;-68
2023/12/31 00:36:22;;;;;;;11.17;7.53;;;5.00;19.80;;;;;;5020554;28;20475;-68
2023/12/31 00:38:49;;;;;;;9.87;7.10;;;5.00;19.80;;;;;;5020864;28;20459;-67
2023/12/31 00:41:16;;;;;;;11.10;6.77;;;5.00;19.70;;;;;;5024844;28;20468;-68
2023/12/31 00:43:44;;;;;;;11.60;7.47;;;5.00;19.70;;;;;;5017796;28;20494;-67
2023/12/31 00:46:12;;;;;;;10.17;8.13;;;5.00;19.70;;;;;;5024783;28;20472;-67
2023/12/31 00:48:39;;;;;;;9.90;6.80;;;5.00;19.60;;;;;;5024911;28;20467;-67
2023/12/31 00:51:06;;;;;;;13.00;7.87;;;4.90;19.20;;;;;;5023825;28;20467;-67
2023/12/31 00:53:33;;;;;;;9.73;7.30;;;4.80;19.00;;;;;;5024580;28;20479;-67
2023/12/31 00:55:59;;;;;;;15.40;8.67;;;4.70;19.00;;;;;;5023268;28;20492;-67
2023/12/31 00:58:26;;;;;;;10.60;8.00;;;4.70;19.00;;;;;;5026811;28;20455;-67
2023/12/31 01:00:54;;;;;;;11.90;8.17;;;4.60;19.00;;;;;;5026033;28;20477;-67
2023/12/31 01:03:21;;;;;;;10.57;8.00;;;4.60;19.00;;;;;;5022115;28;20493;-67
2023/12/31 01:05:48;;;;;;;11.03;7.43;;;4.50;19.00;;;;;;5022860;28;20470;-67
2023/12/31 01:08:14;;;;;;;13.00;8.80;;;4.50;19.10;;;;;;5021870;28;20459;-68
2023/12/31 01:10:41;;;;;;;13.70;9.07;;;4.50;19.20;;;;;;5020466;28;20498;-68
2023/12/31 01:13:08;;;;;;;12.87;9.00;;;4.40;19.20;;;;;;5022491;28;20482;-67
2023/12/31 01:15:35;;;;;;;13.60;8.10;;;4.40;19.20;;;;;;5025612;28;20860;-67
2023/12/31 01:18:03;;;;;;;13.87;9.77;;;4.40;19.20;;;;;;5027380;28;20467;-67
2023/12/31 01:20:29;;;;;;;15.97;10.00;;;4.30;19.40;;;;;;5026673;28;20886;-68
2023/12/31 01:22:56;;;;;;;17.07;9.30;;;4.30;19.40;;;;;;5028274;28;20515;-67
2023/12/31 01:25:23;;;;;;;15.50;9.00;;;4.30;19.60;;;;;;5026962;28;20832;-67
2023/12/31 01:27:49;;;;;;;12.50;8.63;;;4.40;20.00;;;;;;5025137;28;20454;-67
2023/12/31 01:30:16;;;;;;;13.33;9.73;;;4.30;20.30;;;;;;5022640;28;20464;-67
2023/12/31 01:32:44;;;;;;;13.47;8.07;;;4.30;20.30;;;;;;5028017;28;20506;-67
2023/12/31 01:35:12;;;;;;;11.03;7.57;;;4.30;20.20;;;;;;5027254;28;20487;-67
2023/12/31 01:37:38;;;;;;;10.40;7.10;;;4.30;20.30;;;;;;5028014;28;20463;-68
2023/12/31 01:40:06;;;;;;;11.20;7.07;;;4.30;20.50;;;;;;5024943;28;20466;-68
2023/12/31 01:42:33;;;;;;;14.03;7.80;;;4.30;20.60;;;;;;5025578;28;20827;-67
2023/12/31 01:45:00;;;;;;;14.23;7.90;;;4.30;20.50;;;;;;5028158;28;20459;-67
2023/12/31 01:47:27;;;;;;;11.10;7.23;;;4.30;20.50;;;;;;5027628;28;20463;-67
2023/12/31 01:49:53;;;;;;;17.67;11.40;;;4.30;20.40;;;;;;5024586;28;20999;-67
2023/12/31 01:52:24;;;;;;;12.77;8.43;;;4.30;20.40;;;;;;5029246;28;20467;-68
2023/12/31 01:54:51;;;;;;;12.73;7.70;;;4.30;20.30;;;;;;5026136;28;20482;-68
2023/12/31 01:57:21;;;;;;;10.80;7.37;;;4.30;20.10;;;;;;5020051;28;20478;-67
2023/12/31 01:59:47;;;;;;;11.37;7.30;;;4.30;20.00;;;;;;5025068;28;20470;-67
2023/12/31 02:02:15;;;;;;;11.07;7.70;;;4.30;20.10;;;;;;5026228;28;20475;-67
2023/12/31 02:04:42;;;;;;;9.40;6.40;;;4.30;20.10;;;;;;5053067;22;20501;-65
2023/12/31 02:07:08;;;;;;;10.77;6.77;;;4.30;20.10;;;;;;5039583;28;20466;-66
2023/12/31 02:09:36;;;;;;;10.93;6.63;;;4.30;20.00;;;;;;5046697;28;20473;-66
2023/12/31 02:12:04;;;;;;;9.33;5.70;;;4.30;20.20;;;;;;5049021;28;21024;-65
2023/12/31 02:14:30;;;;;;;8.63;6.13;;;4.40;20.10;;;;;;5049644;28;20482;-65
2023/12/31 02:16:57;;;;;;;8.80;5.43;;;4.30;20.10;;;;;;5048027;28;20466;-66
2023/12/31 02:19:24;;;;;;;10.20;6.80;;;4.30;20.70;;;;;;5048365;28;20461;-66
2023/12/31 02:21:51;;;;;;;10.80;6.73;;;4.40;20.00;;;;;;5049161;28;20473;-66
2023/12/31 02:24:20;;;;;;;7.70;5.03;;;4.40;20.10;;;;;;5048927;28;20481;-65
2023/12/31 02:26:48;;;;;;;11.43;6.23;;;4.40;19.90;;;;;;5044865;28;20521;-66
2023/12/31 02:29:15;;;;;;;9.33;5.77;;;4.40;19.90;;;;;;5048921;28;20545;-65
2023/12/31 02:31:42;;;;;;;11.47;6.47;;;4.30;20.00;;;;;;5048232;28;20486;-66
2023/12/31 02:34:09;;;;;;;10.93;5.70;;;4.30;20.10;;;;;;5048787;28;20485;-65
2023/12/31 02:36:35;;;;;;;9.53;5.80;;;4.30;20.00;;;;;;5047805;28;20458;-65
2023/12/31 02:39:02;;;;;;;9.97;6.33;;;4.30;19.70;;;;;;5041236;28;20876;-66
2023/12/31 02:41:29;;;;;;;10.70;6.13;;;4.40;19.60;;;;;;5047263;28;20454;-66
2023/12/31 02:43:57;;;;;;;7.93;5.23;;;4.40;19.60;;;;;;5045685;28;20992;-65
2023/12/31 02:46:24;;;;;;;7.80;5.33;;;4.30;19.70;;;;;;5057138;28;20450;-66
2023/12/31 02:48:51;;;;;;;10.63;5.57;;;4.20;19.80;;;;;;5074572;28;20462;-65
2023/12/31 02:51:17;;;;;;;8.90;5.70;;;4.20;19.90;;;;;;5056619;28;20836;-66
2023/12/31 02:53:44;;;;;;;10.13;6.10;;;4.20;19.90;;;;;;5045311;28;20489;-65
2023/12/31 02:56:11;;;;;;;9.67;5.23;;;4.20;19.90;;;;;;5046522;28;20854;-65
2023/12/31 02:58:37;;;;;;;8.27;5.03;;;4.20;20.00;;;;;;5045285;28;20465;-66
2023/12/31 03:01:05;;;;;;;9.03;5.43;;;4.20;20.00;;;;;;5046797;28;20466;-67
2023/12/31 03:03:32;;;;;;;8.40;5.20;;;4.20;19.90;;;;;;5048011;28;20500;-65
2023/12/31 03:05:59;;;;;;;9.33;5.60;;;4.20;19.90;;;;;;5047762;28;20461;-65
2023/12/31 03:08:25;;;;;;;12.00;6.87;;;4.20;20.00;;;;;;5048446;28;20469;-65
2023/12/31 03:10:52;;;;;;;9.40;5.40;;;4.20;20.00;;;;;;5045094;28;20466;-65
2023/12/31 03:13:19;;;;;;;9.67;4.70;;;4.10;20.20;;;;;;5040665;28;20551;-65
2023/12/31 03:15:46;;;;;;;8.37;5.20;;;4.10;20.30;;;;;;5045827;28;20474;-66
2023/12/31 03:18:14;;;;;;;9.43;6.80;;;4.10;20.20;;;;;;5044459;28;20503;-65
2023/12/31 03:20:40;;;;;;;9.90;5.70;;;4.00;20.30;;;;;;5047745;28;20466;-65
2023/12/31 03:23:07;;;;;;;9.23;6.23;;;4.00;20.30;;;;;;5047532;28;20489;-65
2023/12/31 03:25:34;;;;;;;12.37;5.50;;;3.90;20.50;;;;;;5045038;28;20976;-65
2023/12/31 03:28:01;;;;;;;6.93;4.23;;;4.00;20.10;;;;;;5042700;28;20465;-66
2023/12/31 03:30:27;;;;;;;10.20;5.20;;;3.90;20.20;;;;;;5045608;28;20454;-65
2023/12/31 03:32:54;;;;;;;9.43;5.40;;;3.90;20.10;;;;;;5046351;28;20486;-65
2023/12/31 03:35:22;;;;;;;9.70;5.47;;;3.80;20.10;;;;;;5047534;28;20477;-65
2023/12/31 03:37:49;;;;;;;10.40;5.40;;;3.80;20.00;;;;;;5046130;28;20492;-66
2023/12/31 03:40:16;;;;;;;9.47;5.73;;;3.80;20.00;;;;;;5047377;28;20471;-65
2023/12/31 03:42:42;;;;;;;9.23;5.77;;;3.80;20.00;;;;;;5046367;28;20841;-66
2023/12/31 03:45:09;;;;;;;7.53;5.43;;;3.70;20.00;;;;;;5043989;28;20465;-66
2023/12/31 03:47:36;;;;;;;7.70;4.97;;;3.70;20.00;;;;;;5047300;28;20470;-65
2023/12/31 03:50:03;;;;;;;8.40;5.30;;;3.70;20.00;;;;;;5048354;28;20498;-65
2023/12/31 03:52:32;;;;;;;8.13;4.90;;;3.70;20.00;;;;;;5045341;28;21035;-65
2023/12/31 03:54:59;;;;;;;9.43;5.03;;;3.70;20.10;;;;;;5046897;28;20474;-65
2023/12/31 03:57:26;;;;;;;9.10;5.83;;;3.70;20.10;;;;;;5047978;28;20466;-65
2023/12/31 03:59:53;;;;;;;11.03;5.60;;;3.70;20.00;;;;;;5045050;28;20545;-65
2023/12/31 04:02:20;;;;;;;10.20;5.03;;;3.70;20.00;;;;;;5044726;28;20486;-65
2023/12/31 04:04:47;;;;;;;7.67;4.50;;;3.70;20.00;;;;;;5047267;28;20454;-64
2023/12/31 04:07:13;;;;;;;7.43;4.00;;;3.70;20.00;;;;;;5043841;28;20465;-65
2023/12/31 04:09:41;;;;;;;7.20;4.50;;;3.70;20.00;;;;;;5044769;28;20470;-65
2023/12/31 04:12:09;;;;;;;7.80;4.87;;;3.80;19.90;;;;;;5047291;28;20453;-65
2023/12/31 04:14:36;;;;;;;7.93;3.97;;;3.70;20.00;;;;;;5045187;28;20488;-65
2023/12/31 04:17:03;;;;;;;7.00;4.47;;;3.70;20.00;;;;;;5046809;28;20458;-65
2023/12/31 04:19:29;;;;;;;7.87;4.63;;;3.60;19.80;;;;;;5043724;28;20458;-65
2023/12/31 04:21:56;;;;;;;6.87;4.23;;;3.60;19.70;;;;;;5045114;28;20477;-65
2023/12/31 04:24:23;;;;;;;6.50;4.27;;;3.60;19.60;;;;;;5045619;28;20485;-65
2023/12/31 04:26:51;;;;;;;8.10;5.13;;;3.50;19.60;;;;;;5045656;28;20462;-65
2023/12/31 04:29:18;;;;;;;9.57;5.30;;;3.50;19.50;;;;;;5046086;28;20463;-65
2023/12/31 04:31:46;;;;;;;8.00;5.17;;;3.50;19.50;;;;;;5041214;28;20482;-65
2023/12/31 04:34:13;;;;;;;8.03;5.30;;;3.40;19.50;;;;;;5042491;28;20493;-65
2023/12/31 04:36:43;;;;;;;9.40;6.57;;;3.40;19.40;;;;;;5043785;28;20842;-66
2023/12/31 04:39:09;;;;;;;10.60;6.50;;;3.40;19.40;;;;;;5047044;28;20481;-65
2023/12/31 04:41:36;;;;;;;10.73;7.53;;;3.30;19.60;;;;;;5046903;28;20462;-65
2023/12/31 04:44:05;;;;;;;10.87;7.97;;;3.30;19.60;;;;;;5045860;28;21272;-65
2023/12/31 04:46:31;;;;;;;13.30;9.00;;;3.20;19.70;;;;;;5047284;28;20450;-66
2023/12/31 04:48:58;;;;;;;10.50;7.20;;;3.20;19.70;;;;;;5046815;28;20462;-66
2023/12/31 04:51:26;;;;;;;10.23;8.13;;;3.20;19.80;;;;;;5048160;28;20476;-65
2023/12/31 04:53:53;;;;;;;13.70;7.90;;;3.20;19.90;;;;;;5047915;28;20478;-66
2023/12/31 04:56:20;;;;;;;26.77;9.63;;;3.10;20.00;;;;;;5051124;28;20473;-66
2023/12/31 04:58:48;;;;;;;16.17;9.70;;;3.00;20.10;;;;;;5050822;28;20462;-66
2023/12/31 05:01:17;;;;;;;47.80;10.47;;;3.00;20.50;;;;;;5047291;28;20477;-66
2023/12/31 05:03:44;;;;;;;51.30;10.77;;;2.90;20.90;;;;;;5049949;28;20477;-65
2023/12/31 05:06:12;;;;;;;45.20;12.43;;;2.80;21.40;;;;;;5049100;28;20466;-66
2023/12/31 05:08:39;;;;;;;15.80;8.70;;;2.70;21.80;;;;;;5047328;28;20848;-66
2023/12/31 05:11:05;;;;;;;11.33;7.47;;;2.60;22.00;;;;;;5048639;28;20457;-66
2023/12/31 05:13:33;;;;;;;15.07;8.80;;;2.70;22.00;;;;;;5050952;28;20473;-65
2023/12/31 05:16:00;;;;;;;15.60;7.87;;;2.60;22.10;;;;;;5050524;28;20481;-65
2023/12/31 05:18:28;;;;;;;17.03;8.67;;;2.60;22.10;;;;;;5047720;28;20472;-65
2023/12/31 05:20:55;;;;;;;33.53;8.87;;;2.60;22.00;;;;;;5049119;28;20466;-65
2023/12/31 05:23:22;;;;;;;15.50;7.50;;;2.50;22.10;;;;;;5050867;28;20485;-65
2023/12/31 05:25:50;;;;;;;11.73;7.43;;;2.50;22.20;;;;;;5049388;28;20450;-65
2023/12/31 05:28:17;;;;;;;10.47;6.37;;;2.40;22.10;;;;;;5047918;28;20833;-65
2023/12/31 05:30:44;;;;;;;12.60;8.13;;;2.50;22.10;;;;;;5047562;28;20469;-65
2023/12/31 05:33:11;;;;;;;10.00;7.37;;;2.50;22.00;;;;;;5048147;28;20481;-65
2023/12/31 05:35:39;;;;;;;11.40;8.20;;;2.50;21.90;;;;;;5048419;28;20481;-65
2023/12/31 05:38:06;;;;;;;12.80;8.60;;;2.50;21.90;;;;;;5045290;28;20472;-65
2023/12/31 05:40:33;;;;;;;10.43;6.73;;;2.50;21.90;;;;;;5048795;28;21052;-65
2023/12/31 05:43:00;;;;;;;13.23;8.50;;;2.50;21.90;;;;;;5051408;28;20478;-65
2023/12/31 05:45:26;;;;;;;13.80;8.47;;;2.50;21.90;;;;;;5064453;28;20438;-66
2023/12/31 05:47:53;;;;;;;13.60;8.97;;;2.50;22.00;;;;;;5076900;28;20442;-65
2023/12/31 05:50:20;;;;;;;11.17;8.03;;;2.50;21.90;;;;;;5056038;28;20454;-65
2023/12/31 05:52:48;;;;;;;14.93;9.93;;;2.50;21.90;;;;;;5050161;28;20495;-65
2023/12/31 05:55:15;;;;;;;15.03;9.57;;;2.50;21.80;;;;;;5049094;28;20982;-65
2023/12/31 05:57:43;;;;;;;18.23;8.90;;;2.50;21.70;;;;;;5049426;28;20466;-65
2023/12/31 06:00:11;;;;;;;12.87;9.00;;;2.50;21.70;;;;;;5050364;28;21338;-65
2023/12/31 06:02:38;;;;;;;11.50;8.23;;;2.50;21.40;;;;;;5047164;28;20536;-65
2023/12/31 06:05:05;;;;;;;12.07;7.70;;;2.50;21.30;;;;;;5049303;28;20470;-66
2023/12/31 06:07:32;;;;;;;10.83;7.40;;;2.50;21.10;;;;;;5048462;28;20473;-65
2023/12/31 06:10:00;;;;;;;11.40;8.27;;;2.50;21.00;;;;;;5047829;28;20462;-65
2023/12/31 06:12:28;;;;;;;11.10;7.90;;;2.40;20.90;;;;;;5049670;28;20461;-66
2023/12/31 06:14:54;;;;;;;14.07;8.00;;;2.40;21.00;;;;;;5048683;28;20459;-65
2023/12/31 06:17:21;;;;;;;12.20;8.57;;;2.40;21.00;;;;;;5049281;28;20493;-65
2023/12/31 06:19:48;;;;;;;13.43;8.33;;;2.30;21.20;;;;;;5050013;28;20843;-65
2023/12/31 06:22:14;;;;;;;12.37;9.03;;;2.20;21.70;;;;;;5049214;28;20470;-65
2023/12/31 06:24:41;;;;;;;11.73;9.10;;;2.20;21.90;;;;;;5048009;28;20477;-65
2023/12/31 06:27:09;;;;;;;14.33;8.00;;;2.20;22.20;;;;;;5047858;28;21018;-65
2023/12/31 06:29:36;;;;;;;12.93;8.50;;;2.20;22.30;;;;;;5047514;28;20465;-65
2023/12/31 06:32:03;;;;;;;11.77;8.00;;;2.20;22.00;;;;;;5046034;28;20978;-65
2023/12/31 06:34:30;;;;;;;12.93;7.60;;;2.20;22.40;;;;;;5048374;28;20482;-65
2023/12/31 06:36:56;;;;;;;9.63;6.90;;;2.10;22.50;;;;;;5048127;28;20704;-66
2023/12/31 06:39:23;;;;;;;12.77;10.07;;;2.20;22.40;;;;;;5046559;28;20465;-66
2023/12/31 06:41:50;;;;;;;15.40;10.00;;;2.20;22.50;;;;;;5048331;28;20466;-65
2023/12/31 06:44:18;;;;;;;12.20;9.60;;;2.20;22.30;;;;;;5046900;28;20998;-66
2023/12/31 06:46:45;;;;;;;11.67;7.43;;;2.10;22.20;;;;;;5047345;28;20767;-65
2023/12/31 06:49:12;;;;;;;13.20;9.17;;;2.00;22.60;;;;;;5048831;28;20941;-65
2023/12/31 06:51:39;;;;;;;16.07;9.57;;;2.00;22.70;;;;;;5047055;28;20978;-65
2023/12/31 06:54:06;;;;;;;12.67;8.77;;;2.10;22.40;;;;;;5047150;28;20516;-65
2023/12/31 06:56:33;;;;;;;10.13;7.27;;;2.00;22.30;;;;;;5049458;28;21241;-65
2023/12/31 06:59:00;;;;;;;12.40;8.00;;;2.10;22.30;;;;;;5048460;28;20466;-65
2023/12/31 07:01:28;;;;;;;10.50;7.67;;;2.10;22.20;;;;;;5046133;28;20478;-65
2023/12/31 07:03:55;;;;;;;11.97;8.40;;;2.10;22.40;;;;;;5048151;28;20917;-65
2023/12/31 07:06:22;;;;;;;11.23;8.37;;;2.10;22.20;;;;;;5049371;28;20454;-65
2023/12/31 07:08:49;;;;;;;11.57;7.87;;;2.10;21.90;;;;;;5044084;28;20462;-66
2023/12/31 07:11:16;;;;;;;9.30;7.30;;;2.10;21.80;;;;;;5048389;28;20470;-65
2023/12/31 07:13:43;;;;;;;14.40;9.20;;;2.10;21.90;;;;;;5047999;28;20486;-66
2023/12/31 07:16:10;;;;;;;12.30;9.10;;;2.10;21.80;;;;;;5047436;28;20492;-66
2023/12/31 07:18:38;;;;;;;11.47;8.70;;;2.20;21.70;;;;;;5046779;28;20462;-66
2023/12/31 07:21:05;;;;;;;10.90;8.30;;;2.20;21.50;;;;;;5047470;28;20461;-65
2023/12/31 07:23:33;;;;;;;19.17;12.40;;;2.20;21.40;;;;;;5048653;28;20516;-65
2023/12/31 07:25:59;;;;;;;13.47;9.70;;;2.20;21.50;;;;;;5048306;28;20454;-65
2023/12/31 07:28:26;;;;;;;15.47;10.43;;;2.10;21.50;;;;;;5045591;28;20469;-66
2023/12/31 07:30:53;;;;;;;16.37;11.30;;;2.20;21.60;;;;;;5046773;28;20547;-65
2023/12/31 07:33:19;;;;;;;15.90;11.30;;;2.20;21.60;;;;;;5048280;28;20481;-65
2023/12/31 07:35:47;;;;;;;20.80;12.07;;;2.30;21.50;;;;;;5048260;28;20481;-65
2023/12/31 07:38:13;;;;;;;24.00;13.97;;;2.30;21.60;;;;;;5046497;28;20291;-65
2023/12/31 07:40:40;;;;;;;21.27;14.20;;;2.30;21.80;;;;;;5046008;28;20469;-65
2023/12/31 07:43:07;;;;;;;24.50;14.80;;;2.30;21.90;;;;;;5045217;28;20476;-65
2023/12/31 07:45:34;;;;;;;25.53;15.43;;;2.40;21.60;;;;;;5047969;28;20485;-65
2023/12/31 07:48:01;;;;;;;28.73;16.40;;;2.40;21.40;;;;;;5043728;28;20465;-66
2023/12/31 07:50:28;;;;;;;82.53;40.43;;;2.50;21.40;;;;;;5045467;28;20465;-65
2023/12/31 07:52:56;;;;;;;56.33;29.67;;;2.50;21.40;;;;;;5044785;28;20492;-65
2023/12/31 07:55:22;;;;;;;40.63;22.47;;;2.50;21.50;;;;;;5046331;28;20466;-65
2023/12/31 07:57:49;;;;;;;19.17;12.30;;;2.50;21.40;;;;;;5047873;28;20482;-66
2023/12/31 08:00:17;;;;;;;20.50;13.70;;;2.50;21.40;;;;;;5045372;28;20517;-65
2023/12/31 08:02:43;;;;;;;16.53;10.67;;;2.60;21.30;;;;;;5044036;28;20485;-65
2023/12/31 08:05:11;;;;;;;13.17;9.20;;;2.60;21.30;;;;;;5058832;23;21020;-66
2023/12/31 08:07:37;;;;;;;14.03;9.33;;;2.60;21.40;;;;;;5047230;28;20454;-66
2023/12/31 08:10:07;;;;;;;12.80;9.53;;;2.60;20.90;;;;;;5044671;28;20474;-68
2023/12/31 08:12:34;;;;;;;13.00;9.53;;;2.70;21.00;;;;;;5044183;28;20515;-69
2023/12/31 08:15:01;;;;;;;11.30;8.70;;;2.70;21.20;;;;;;5042923;28;20473;-69
2023/12/31 08:17:27;;;;;;;14.30;10.20;;;2.80;21.00;;;;;;5043354;28;20474;-69
2023/12/31 08:19:54;;;;;;;11.37;8.50;;;2.80;21.10;;;;;;5043993;28;20458;-68
2023/12/31 08:22:21;;;;;;;11.77;9.00;;;2.90;21.20;;;;;;5042878;28;20463;-68
2023/12/31 08:24:48;;;;;;;10.97;8.47;;;3.00;21.00;;;;;;5048968;28;20477;-69
2023/12/31 08:27:16;;;;;;;13.23;9.80;;;3.00;21.10;;;;;;5043937;28;20474;-69
2023/12/31 08:29:42;;;;;;;13.77;10.23;;;3.00;21.20;;;;;;5048651;28;20464;-69
2023/12/31 08:32:09;;;;;;;15.03;11.17;;;2.90;21.20;;;;;;5048105;28;20843;-69
2023/12/31 08:34:37;;;;;;;12.93;10.97;;;2.90;21.10;;;;;;5048988;28;20488;-68
2023/12/31 08:37:04;;;;;;;13.87;10.27;;;2.90;21.10;;;;;;5043761;28;20493;-69
2023/12/31 08:39:30;;;;;;;16.80;10.27;;;2.90;21.10;;;;;;5045666;28;20466;-68
2023/12/31 08:41:57;;;;;;;12.80;9.83;;;3.00;21.30;;;;;;5045677;28;20486;-68
2023/12/31 08:44:25;;;;;;;11.30;8.67;;;3.00;21.30;;;;;;5045692;28;20490;-68
2023/12/31 08:46:52;;;;;;;14.67;10.10;;;3.00;21.80;;;;;;5049158;28;20461;-68
2023/12/31 08:49:19;;;;;;;14.70;10.50;;;3.10;21.40;;;;;;5046293;28;20725;-68
2023/12/31 08:51:46;;;;;;;13.60;10.77;;;3.10;21.60;;;;;;5045026;28;20490;-68
2023/12/31 08:54:12;;;;;;;13.57;9.80;;;3.20;21.50;;;;;;5046746;28;20481;-69
2023/12/31 08:56:39;;;;;;;13.23;8.90;;;3.30;21.40;;;;;;5045743;28;20504;-68
2023/12/31 08:59:06;;;;;;;13.30;9.77;;;3.40;20.90;;;;;;5048001;28;20458;-69
2023/12/31 09:01:34;;;;;;;12.00;9.73;;;3.50;20.10;;;;;;5045481;28;20481;-68
2023/12/31 09:04:01;;;;;;;12.47;8.50;;;3.60;19.80;;;;;;5044815;28;20485;-68
2023/12/31 09:06:28;;;;;;;11.70;8.87;;;3.80;19.40;;;;;;5044837;28;20458;-69
2023/12/31 09:08:55;;;;;;;11.63;8.80;;;3.80;19.70;;;;;;5046763;28;20462;-68
2023/12/31 09:11:22;;;;;;;15.83;9.10;;;4.00;19.70;;;;;;5043381;28;20461;-68
2023/12/31 09:13:49;;;;;;;10.13;7.40;;;4.10;19.60;;;;;;5045654;28;20478;-68
2023/12/31 09:16:16;;;;;;;10.87;7.77;;;4.20;19.20;;;;;;5043129;28;20861;-68
2023/12/31 09:18:44;;;;;;;10.70;7.47;;;4.20;19.20;;;;;;5044118;28;20462;-68
2023/12/31 09:21:11;;;;;;;10.53;7.40;;;4.20;18.90;;;;;;5042737;28;20461;-68
2023/12/31 09:23:37;;;;;;;9.63;7.00;;;4.20;18.70;;;;;;5043507;28;20473;-68
2023/12/31 09:26:04;;;;;;;9.50;6.50;;;4.20;19.10;;;;;;5044806;28;20466;-69
2023/12/31 09:28:31;;;;;;;8.93;7.30;;;4.10;19.30;;;;;;5047594;28;20465;-69
2023/12/31 09:30:58;;;;;;;9.77;6.20;;;4.10;19.50;;;;;;5041824;28;20502;-68
2023/12/31 09:33:24;;;;;;;10.07;6.20;;;4.00;19.60;;;;;;5043986;28;20479;-68
2023/12/31 09:35:52;;;;;;;10.83;7.33;;;4.00;19.60;;;;;;5044421;28;20462;-68
2023/12/31 09:38:19;;;;;;;9.97;6.93;;;4.00;19.60;;;;;;5042313;28;20483;-69
2023/12/31 09:40:46;;;;;;;11.60;6.77;;;4.00;19.70;;;;;;5042731;28;20462;-69
2023/12/31 09:43:20;;;;;;;9.13;6.83;;;4.10;19.40;;;;;;5044008;28;21228;-68
2023/12/31 09:45:48;;;;;;;11.23;7.60;;;4.30;18.90;;;;;;5043200;28;20894;-65
2023/12/31 09:48:16;;;;;;;12.13;7.20;;;4.50;18.80;;;;;;5039945;28;20485;-68
2023/12/31 09:50:43;;;;;;;10.40;6.87;;;4.70;19.00;;;;;;5044096;28;20473;-71
2023/12/31 09:53:12;;;;;;;10.00;6.67;;;4.80;19.00;;;;;;5044452;28;20505;-68
2023/12/31 09:55:39;;;;;;;8.80;5.57;;;5.00;19.10;;;;;;5046409;28;20462;-68
2023/12/31 09:58:08;;;;;;;20.33;13.43;;;5.20;18.90;;;;;;5050289;28;20523;-69
2023/12/31 10:00:35;;;;;;;17.10;12.73;;;5.30;18.80;;;;;;5046417;28;20891;-69
2023/12/31 10:03:04;;;;;;;17.30;10.77;;;5.40;18.50;;;;;;5047978;28;20486;-68
2023/12/31 10:05:32;;;;;;;14.03;8.67;;;5.50;18.30;;;;;;5050242;28;20462;-69
2023/12/31 10:08:03;;;;;;;13.27;7.10;;;5.60;18.10;;;;;;5050513;28;20454;-68
2023/12/31 10:10:34;;;;;;;7.40;4.87;;;5.70;18.00;;;;;;5050532;28;21044;-69
2023/12/31 10:13:01;;;;;;;9.40;6.13;;;5.70;17.50;;;;;;5044923;28;20856;-69
2023/12/31 10:15:28;;;;;;;10.23;5.70;;;5.80;16.90;;;;;;5048463;28;20840;-69
2023/12/31 10:17:56;;;;;;;10.30;6.10;;;5.90;16.80;;;;;;5042278;28;20505;-69
2023/12/31 10:20:25;;;;;;;12.43;8.80;;;6.00;16.60;;;;;;5042381;28;20470;-71
2023/12/31 10:22:52;;;;;;;19.60;12.43;;;6.10;16.40;;;;;;5048762;28;20488;-70
2023/12/31 10:25:20;;;;;;;10.73;7.20;;;6.30;16.40;;;;;;5046537;28;20466;-70
2023/12/31 10:27:48;;;;;;;11.83;7.27;;;6.40;16.70;;;;;;5047271;28;20860;-70
2023/12/31 10:30:15;;;;;;;12.20;8.33;;;6.40;16.50;;;;;;5040509;28;20477;-69
2023/12/31 10:32:42;;;;;;;9.43;6.20;;;6.60;16.40;;;;;;5049232;28;20478;-69
2023/12/31 10:35:09;;;;;;;10.40;6.77;;;6.70;16.30;;;;;;5042653;28;20470;-70
2023/12/31 10:37:36;;;;;;;10.00;5.97;;;6.90;16.20;;;;;;5046116;28;20488;-69
2023/12/31 10:40:19;;;;;;;8.33;5.43;;;7.10;15.80;;;;;;5058974;22;20469;-67
2023/12/31 10:42:51;;;;;;;13.10;6.97;;;7.30;15.60;;;;;;5023010;28;20560;-66
2023/12/31 10:45:21;;;;;;;10.67;7.90;;;7.50;15.20;;;;;;5020325;28;20461;-68
2023/12/31 10:47:51;;;;;;;21.33;15.13;;;7.60;15.00;;;;;;5024625;28;21002;-67
2023/12/31 10:50:22;;;;;;;10.50;7.67;;;7.70;14.50;;;;;;5025493;28;20782;-68
2023/12/31 10:52:51;;;;;;;9.73;6.77;;;7.80;14.30;;;;;;5025594;28;20470;-67
2023/12/31 10:55:18;;;;;;;12.00;7.30;;;7.90;13.80;;;;;;5023518;28;20463;-68
2023/12/31 10:57:45;;;;;;;12.03;8.40;;;7.90;13.50;;;;;;5027254;28;20481;-69
2023/12/31 11:00:15;;;;;;;13.03;8.10;;;7.90;13.50;;;;;;5025958;28;20830;-67
2023/12/31 11:02:43;;;;;;;21.90;12.10;;;7.90;13.60;;;;;;5023097;28;20470;-68
2023/12/31 11:05:10;;;;;;;24.00;12.23;;;8.00;13.70;;;;;;5022444;28;20462;-68
2023/12/31 11:07:37;;;;;;;18.20;10.47;;;8.20;13.80;;;;;;5028729;28;20470;-67
2023/12/31 11:10:05;;;;;;;46.67;21.30;;;8.40;13.60;;;;;;5025090;28;20845;-70
2023/12/31 11:12:32;;;;;;;21.20;11.17;;;8.70;13.40;;;;;;5026061;28;20513;-68
2023/12/31 11:15:04;;;;;;;9.77;6.23;;;9.00;12.80;;;;;;5024131;28;20485;-67
2023/12/31 11:18:02;;;;;;;9.60;5.47;;;9.40;12.00;;;;;;5023696;28;21052;-67
2023/12/31 11:20:45;;;;;;;8.00;6.10;;;9.70;12.20;;;;;;5011500;28;20462;-69
2023/12/31 11:23:23;;;;;;;9.10;5.43;;;10.10;10.90;;;;;;5025150;28;20479;-67
2023/12/31 11:25:50;;;;;;;8.33;5.40;;;10.40;9.70;;;;;;5027340;28;20458;-68
2023/12/31 11:28:17;;;;;;;11.63;5.53;;;10.70;9.30;;;;;;5025815;28;20912;-69
2023/12/31 11:30:51;;;;;;;9.50;6.60;;;10.90;8.50;;;;;;5027012;28;21046;-68
2023/12/31 11:33:25;;;;;;;10.30;8.23;;;10.90;6.90;;;;;;5025370;28;20483;-69
2023/12/31 11:35:53;;;;;;;8.20;5.33;;;10.90;6.90;;;;;;5025345;28;20470;-70
2023/12/31 11:38:20;;;;;;;9.00;6.30;;;11.00;6.70;;;;;;5026383;28;20510;-70
2023/12/31 11:40:47;;;;;;;9.47;6.73;;;10.90;7.20;;;;;;5022017;28;20872;-70
2023/12/31 11:43:15;;;;;;;9.83;6.80;;;11.00;7.40;;;;;;5046897;28;20501;-70
2023/12/31 11:45:46;;;;;;;13.20;6.97;;;11.10;7.30;;;;;;5042258;28;20454;-70
2023/12/31 11:48:28;;;;;;;14.33;9.50;;;11.20;7.30;;;;;;5025432;28;20455;-71
2023/12/31 11:50:58;;;;;;;9.90;6.57;;;11.40;7.50;;;;;;5024090;28;21152;-70
2023/12/31 11:53:27;;;;;;;9.63;6.27;;;11.60;7.40;;;;;;5022830;28;20482;-67
2023/12/31 11:55:55;;;;;;;8.53;6.40;;;11.80;7.40;;;;;;5027089;28;20466;-68
2023/12/31 11:58:22;;;;;;;9.63;6.73;;;12.00;7.20;;;;;;5019373;28;21011;-68
2023/12/31 12:00:49;;;;;;;8.30;5.87;;;12.10;7.00;;;;;;5026255;28;20505;-70
2023/12/31 12:03:17;;;;;;;10.67;6.00;;;12.20;6.90;;;;;;5023513;28;20530;-69
2023/12/31 12:05:46;;;;;;;9.53;5.90;;;12.30;6.50;;;;;;5021699;28;20455;-70
2023/12/31 12:08:13;;;;;;;9.00;5.87;;;12.50;6.40;;;;;;5018744;28;20455;-70
2023/12/31 12:10:42;;;;;;;7.90;5.60;;;12.70;6.40;;;;;;5024223;28;20459;-71
2023/12/31 12:13:09;;;;;;;8.33;6.10;;;12.90;5.80;;;;;;5027374;28;20556;-70
2023/12/31 12:15:36;;;;;;;8.03;5.83;;;13.10;5.10;;;;;;5023950;28;20477;-68
2023/12/31 12:18:22;;;;;;;8.37;5.20;;;13.20;3.70;;;;;;5026046;28;20482;-68
2023/12/31 12:20:50;;;;;;;8.33;5.50;;;13.10;3.80;;;;;;5024897;28;21029;-71
2023/12/31 12:23:18;;;;;;;10.67;7.63;;;13.00;3.50;;;;;;5020757;28;20498;-72
2023/12/31 12:25:45;;;;;;;9.60;6.77;;;13.00;3.90;;;;;;5022678;28;20463;-73
2023/12/31 12:28:12;;;;;;;9.57;6.63;;;13.00;4.20;;;;;;5021002;28;20456;-72
2023/12/31 12:30:40;;;;;;;10.10;8.10;;;13.00;4.40;;;;;;5021993;28;20549;-69
2023/12/31 12:33:07;;;;;;;10.83;8.37;;;13.00;4.70;;;;;;5023502;28;20498;-70
2023/12/31 12:35:37;;;;;;;9.60;8.20;;;13.00;5.10;;;;;;5023007;28;20467;-70
2023/12/31 12:38:05;;;;;;;11.77;8.47;;;12.90;5.50;;;;;;5022500;28;20478;-69
2023/12/31 12:40:32;;;;;;;11.70;9.00;;;12.80;5.70;;;;;;5020061;28;20479;-70
2023/12/31 12:43:49;;;;;;;11.00;8.37;;;12.60;5.80;;;;;;5015445;28;20480;-70
2023/12/31 12:46:16;;;;;;;8.53;7.10;;;12.50;6.10;;;;;;5027667;28;20820;-70
2023/12/31 12:48:48;;;;;;;9.70;6.37;;;12.30;6.10;;;;;;5024014;28;20451;-70
2023/12/31 12:51:15;;;;;;;8.67;6.30;;;12.10;6.10;;;;;;5024735;28;20513;-69